sensor_id;sensor_type;location;lat;lon;timestamp;P1;durP1;ratioP1;P2;durP2;ratioP2
65018;SDS011;66069;51.164;-114.452;2023-05-07T00:01:59;1.50;;;0.80;;
65018;SDS011;66069;51.164;-114.452;2023-05-07T00:04:25;1.20;;;0.70;;
65018;SDS011;66069;51.164;-114.452;2023-05-07T00:06:51;1.10;;;0.77;;
65018;SDS011;66069;51.164;-114.452;2023-05-07T00:09:17;1.85;;;0.73;;
65018;SDS011;66069;51.164;-114.452;2023-05-07T00:11:43;1.10;;;0.75;;
65018;SDS011;66069;51.164;-114.452;2023-05-07T00:14:09;1.15;;;0.73;;
65018;SDS011;66069;51.164;-114.452;2023-05-07T00:16:35;1.17;;;0.70;;
65018;SDS011;66069;51.164;-114.452;2023-05-07T00:19:01;1.08;;;0.70;;
65018;SDS011;66069;51.164;-114.452;2023-05-07T00:21:26;1.40;;;0.85;;
65018;SDS011;66069;51.164;-114.452;2023-05-07T00:23:53;1.25;;;0.90;;
65018;SDS011;66069;51.164;-114.452;2023-05-07T00:26:19;1.50;;;0.88;;
65018;SDS011;66069;51.164;-114.452;2023-05-07T00:28:45;1.70;;;0.85;;
65018;SDS011;66069;51.164;-114.452;2023-05-07T00:31:11;1.55;;;0.90;;
65018;SDS011;66069;51.164;-114.452;2023-05-07T00:33:38;1.42;;;0.80;;
65018;SDS011;66069;51.164;-114.452;2023-05-07T00:36:04;2.40;;;1.00;;
65018;SDS011;66069;51.164;-114.452;2023-05-07T00:38:30;1.90;;;0.90;;
65018;SDS011;66069;51.164;-114.452;2023-05-07T00:40:56;2.08;;;1.00;;
65018;SDS011;66069;51.164;-114.452;2023-05-07T00:43:22;2.00;;;1.02;;
65018;SDS011;66069;51.164;-114.452;2023-05-07T00:45:47;2.65;;;1.10;;
65018;SDS011;66069;51.164;-114.452;2023-05-07T00:48:13;1.58;;;1.00;;
65018;SDS011;66069;51.164;-114.452;2023-05-07T00:50:39;1.48;;;0.80;;
65018;SDS011;66069;51.164;-114.452;2023-05-07T00:53:06;1.60;;;1.10;;
65018;SDS011;66069;51.164;-114.452;2023-05-07T00:55:32;2.28;;;0.93;;
65018;SDS011;66069;51.164;-114.452;2023-05-07T00:57:58;2.45;;;1.17;;
65018;SDS011;66069;51.164;-114.452;2023-05-07T01:00:24;1.73;;;0.90;;
65018;SDS011;66069;51.164;-114.452;2023-05-07T01:02:50;2.03;;;1.00;;
65018;SDS011;66069;51.164;-114.452;2023-05-07T01:05:16;1.65;;;0.90;;
65018;SDS011;66069;51.164;-114.452;2023-05-07T01:07:43;3.38;;;1.08;;
65018;SDS011;66069;51.164;-114.452;2023-05-07T01:10:09;2.05;;;1.00;;
65018;SDS011;66069;51.164;-114.452;2023-05-07T01:12:38;1.92;;;1.30;;
65018;SDS011;66069;51.164;-114.452;2023-05-07T01:15:05;1.38;;;0.90;;
65018;SDS011;66069;51.164;-114.452;2023-05-07T01:17:33;2.80;;;1.23;;
65018;SDS011;66069;51.164;-114.452;2023-05-07T01:19:59;1.80;;;1.02;;
65018;SDS011;66069;51.164;-114.452;2023-05-07T01:22:32;2.40;;;1.13;;
65018;SDS011;66069;51.164;-114.452;2023-05-07T01:24:58;2.22;;;1.15;;
65018;SDS011;66069;51.164;-114.452;2023-05-07T01:27:25;1.73;;;0.90;;
65018;SDS011;66069;51.164;-114.452;2023-05-07T01:29:51;2.10;;;1.02;;
65018;SDS011;66069;51.164;-114.452;2023-05-07T01:32:17;2.13;;;1.00;;
65018;SDS011;66069;51.164;-114.452;2023-05-07T01:34:44;1.92;;;1.00;;
65018;SDS011;66069;51.164;-114.452;2023-05-07T01:37:11;1.67;;;1.08;;
65018;SDS011;66069;51.164;-114.452;2023-05-07T01:39:38;3.17;;;1.40;;
65018;SDS011;66069;51.164;-114.452;2023-05-07T01:42:05;1.95;;;0.90;;
65018;SDS011;66069;51.164;-114.452;2023-05-07T01:44:31;2.33;;;1.00;;
65018;SDS011;66069;51.164;-114.452;2023-05-07T01:46:57;1.90;;;1.00;;
65018;SDS011;66069;51.164;-114.452;2023-05-07T01:49:23;1.33;;;0.90;;
65018;SDS011;66069;51.164;-114.452;2023-05-07T01:51:49;1.90;;;1.20;;
65018;SDS011;66069;51.164;-114.452;2023-05-07T01:54:15;1.80;;;1.00;;
65018;SDS011;66069;51.164;-114.452;2023-05-07T01:56:41;1.80;;;1.00;;
65018;SDS011;66069;51.164;-114.452;2023-05-07T01:59:07;3.08;;;1.00;;
65018;SDS011;66069;51.164;-114.452;2023-05-07T02:01:33;1.77;;;0.82;;
65018;SDS011;66069;51.164;-114.452;2023-05-07T02:03:59;1.25;;;0.90;;
65018;SDS011;66069;51.164;-114.452;2023-05-07T02:06:25;1.25;;;0.73;;
65018;SDS011;66069;51.164;-114.452;2023-05-07T02:08:51;0.95;;;0.70;;
65018;SDS011;66069;51.164;-114.452;2023-05-07T02:11:17;1.65;;;0.90;;
65018;SDS011;66069;51.164;-114.452;2023-05-07T02:13:43;1.95;;;1.10;;
65018;SDS011;66069;51.164;-114.452;2023-05-07T02:16:09;3.00;;;1.00;;
65018;SDS011;66069;51.164;-114.452;2023-05-07T02:18:36;1.45;;;0.80;;
65018;SDS011;66069;51.164;-114.452;2023-05-07T02:21:01;1.67;;;0.90;;
65018;SDS011;66069;51.164;-114.452;2023-05-07T02:23:27;1.83;;;0.93;;
65018;SDS011;66069;51.164;-114.452;2023-05-07T02:25:53;1.38;;;0.90;;
65018;SDS011;66069;51.164;-114.452;2023-05-07T02:28:19;2.10;;;1.02;;
65018;SDS011;66069;51.164;-114.452;2023-05-07T02:30:45;2.53;;;0.93;;
65018;SDS011;66069;51.164;-114.452;2023-05-07T02:33:11;2.25;;;0.93;;
65018;SDS011;66069;51.164;-114.452;2023-05-07T02:35:39;1.98;;;0.80;;
65018;SDS011;66069;51.164;-114.452;2023-05-07T02:38:05;1.80;;;0.95;;
65018;SDS011;66069;51.164;-114.452;2023-05-07T02:40:31;1.67;;;0.80;;
65018;SDS011;66069;51.164;-114.452;2023-05-07T02:42:59;1.85;;;0.90;;
65018;SDS011;66069;51.164;-114.452;2023-05-07T02:45:25;1.92;;;0.80;;
65018;SDS011;66069;51.164;-114.452;2023-05-07T02:47:51;1.67;;;0.90;;
65018;SDS011;66069;51.164;-114.452;2023-05-07T02:50:17;0.93;;;0.70;;
65018;SDS011;66069;51.164;-114.452;2023-05-07T02:52:42;1.35;;;0.77;;
65018;SDS011;66069;51.164;-114.452;2023-05-07T02:55:08;1.67;;;0.88;;
65018;SDS011;66069;51.164;-114.452;2023-05-07T02:57:34;1.67;;;0.90;;
65018;SDS011;66069;51.164;-114.452;2023-05-07T03:00:13;2.35;;;0.90;;
65018;SDS011;66069;51.164;-114.452;2023-05-07T03:02:40;1.92;;;0.80;;
65018;SDS011;66069;51.164;-114.452;2023-05-07T03:05:06;1.20;;;0.75;;
65018;SDS011;66069;51.164;-114.452;2023-05-07T03:07:31;1.40;;;0.80;;
65018;SDS011;66069;51.164;-114.452;2023-05-07T03:09:57;1.30;;;0.80;;
65018;SDS011;66069;51.164;-114.452;2023-05-07T03:12:23;1.90;;;0.90;;
65018;SDS011;66069;51.164;-114.452;2023-05-07T03:14:49;1.33;;;0.80;;
65018;SDS011;66069;51.164;-114.452;2023-05-07T03:17:15;1.20;;;0.80;;
65018;SDS011;66069;51.164;-114.452;2023-05-07T03:19:41;1.73;;;0.90;;
65018;SDS011;66069;51.164;-114.452;2023-05-07T03:22:07;1.48;;;0.77;;
65018;SDS011;66069;51.164;-114.452;2023-05-07T03:24:33;1.40;;;0.77;;
65018;SDS011;66069;51.164;-114.452;2023-05-07T03:26:59;1.42;;;0.90;;
65018;SDS011;66069;51.164;-114.452;2023-05-07T03:29:26;1.30;;;0.90;;
65018;SDS011;66069;51.164;-114.452;2023-05-07T03:31:52;0.93;;;0.70;;
65018;SDS011;66069;51.164;-114.452;2023-05-07T03:34:18;1.13;;;0.80;;
65018;SDS011;66069;51.164;-114.452;2023-05-07T03:36:49;1.38;;;0.90;;
65018;SDS011;66069;51.164;-114.452;2023-05-07T03:39:16;1.40;;;0.80;;
65018;SDS011;66069;51.164;-114.452;2023-05-07T03:41:41;2.22;;;0.93;;
65018;SDS011;66069;51.164;-114.452;2023-05-07T03:44:07;2.40;;;0.90;;
65018;SDS011;66069;51.164;-114.452;2023-05-07T03:46:33;1.08;;;0.70;;
65018;SDS011;66069;51.164;-114.452;2023-05-07T03:48:59;1.73;;;0.77;;
65018;SDS011;66069;51.164;-114.452;2023-05-07T03:51:25;1.20;;;0.70;;
65018;SDS011;66069;51.164;-114.452;2023-05-07T03:53:52;1.40;;;0.80;;
65018;SDS011;66069;51.164;-114.452;2023-05-07T03:58:47;0.90;;;0.70;;
65018;SDS011;66069;51.164;-114.452;2023-05-07T04:01:13;1.13;;;0.77;;
65018;SDS011;66069;51.164;-114.452;2023-05-07T04:03:39;0.88;;;0.60;;
65018;SDS011;66069;51.164;-114.452;2023-05-07T04:06:05;1.58;;;0.90;;
65018;SDS011;66069;51.164;-114.452;2023-05-07T04:08:31;0.98;;;0.77;;
65018;SDS011;66069;51.164;-114.452;2023-05-07T04:10:57;1.05;;;0.73;;
65018;SDS011;66069;51.164;-114.452;2023-05-07T04:13:24;1.20;;;0.80;;
65018;SDS011;66069;51.164;-114.452;2023-05-07T04:15:50;1.08;;;0.68;;
65018;SDS011;66069;51.164;-114.452;2023-05-07T04:18:16;2.20;;;0.77;;
65018;SDS011;66069;51.164;-114.452;2023-05-07T04:20:42;1.15;;;0.70;;
65018;SDS011;66069;51.164;-114.452;2023-05-07T04:23:08;1.00;;;0.63;;
65018;SDS011;66069;51.164;-114.452;2023-05-07T04:25:34;1.40;;;0.70;;
65018;SDS011;66069;51.164;-114.452;2023-05-07T04:27:59;1.05;;;0.60;;
65018;SDS011;66069;51.164;-114.452;2023-05-07T04:30:25;1.30;;;0.70;;
65018;SDS011;66069;51.164;-114.452;2023-05-07T04:32:52;1.13;;;0.70;;
65018;SDS011;66069;51.164;-114.452;2023-05-07T04:35:18;1.23;;;0.80;;
65018;SDS011;66069;51.164;-114.452;2023-05-07T04:37:44;1.40;;;0.73;;
65018;SDS011;66069;51.164;-114.452;2023-05-07T04:40:10;0.88;;;0.57;;
65018;SDS011;66069;51.164;-114.452;2023-05-07T04:42:36;0.98;;;0.70;;
65018;SDS011;66069;51.164;-114.452;2023-05-07T04:45:02;0.70;;;0.57;;
65018;SDS011;66069;51.164;-114.452;2023-05-07T04:47:28;1.20;;;0.75;;
65018;SDS011;66069;51.164;-114.452;2023-05-07T04:49:54;1.42;;;0.70;;
65018;SDS011;66069;51.164;-114.452;2023-05-07T04:52:20;1.52;;;0.77;;
65018;SDS011;66069;51.164;-114.452;2023-05-07T04:54:45;1.13;;;0.80;;
65018;SDS011;66069;51.164;-114.452;2023-05-07T04:57:11;0.98;;;0.70;;
65018;SDS011;66069;51.164;-114.452;2023-05-07T04:59:37;0.85;;;0.65;;
65018;SDS011;66069;51.164;-114.452;2023-05-07T05:02:03;1.13;;;0.75;;
65018;SDS011;66069;51.164;-114.452;2023-05-07T05:04:32;1.13;;;0.80;;
65018;SDS011;66069;51.164;-114.452;2023-05-07T05:06:57;1.23;;;0.70;;
65018;SDS011;66069;51.164;-114.452;2023-05-07T05:09:23;1.10;;;0.70;;
65018;SDS011;66069;51.164;-114.452;2023-05-07T05:11:49;0.90;;;0.63;;
65018;SDS011;66069;51.164;-114.452;2023-05-07T05:14:15;1.38;;;0.70;;
65018;SDS011;66069;51.164;-114.452;2023-05-07T05:16:41;2.17;;;0.80;;
65018;SDS011;66069;51.164;-114.452;2023-05-07T05:19:07;1.30;;;0.80;;
65018;SDS011;66069;51.164;-114.452;2023-05-07T05:21:33;0.98;;;0.60;;
65018;SDS011;66069;51.164;-114.452;2023-05-07T05:23:59;1.10;;;0.60;;
65018;SDS011;66069;51.164;-114.452;2023-05-07T05:26:25;0.90;;;0.60;;
65018;SDS011;66069;51.164;-114.452;2023-05-07T05:28:51;1.55;;;0.80;;
65018;SDS011;66069;51.164;-114.452;2023-05-07T05:31:16;1.08;;;0.70;;
65018;SDS011;66069;51.164;-114.452;2023-05-07T05:33:42;0.80;;;0.60;;
65018;SDS011;66069;51.164;-114.452;2023-05-07T05:36:11;0.82;;;0.65;;
65018;SDS011;66069;51.164;-114.452;2023-05-07T05:38:38;1.08;;;0.70;;
65018;SDS011;66069;51.164;-114.452;2023-05-07T05:41:04;0.73;;;0.60;;
65018;SDS011;66069;51.164;-114.452;2023-05-07T05:43:33;1.08;;;0.60;;
65018;SDS011;66069;51.164;-114.452;2023-05-07T05:45:59;0.80;;;0.60;;
65018;SDS011;66069;51.164;-114.452;2023-05-07T05:48:25;1.23;;;0.70;;
65018;SDS011;66069;51.164;-114.452;2023-05-07T05:50:51;0.98;;;0.70;;
65018;SDS011;66069;51.164;-114.452;2023-05-07T05:53:17;1.23;;;0.70;;
65018;SDS011;66069;51.164;-114.452;2023-05-07T05:55:43;1.15;;;0.70;;
65018;SDS011;66069;51.164;-114.452;2023-05-07T05:58:09;1.25;;;0.68;;
65018;SDS011;66069;51.164;-114.452;2023-05-07T06:00:35;1.13;;;0.60;;
65018;SDS011;66069;51.164;-114.452;2023-05-07T06:03:01;0.95;;;0.50;;
65018;SDS011;66069;51.164;-114.452;2023-05-07T06:05:27;0.75;;;0.57;;
65018;SDS011;66069;51.164;-114.452;2023-05-07T06:07:53;1.08;;;0.60;;
65018;SDS011;66069;51.164;-114.452;2023-05-07T06:10:19;1.02;;;0.70;;
65018;SDS011;66069;51.164;-114.452;2023-05-07T06:12:45;0.75;;;0.60;;
65018;SDS011;66069;51.164;-114.452;2023-05-07T06:15:11;0.77;;;0.60;;
65018;SDS011;66069;51.164;-114.452;2023-05-07T06:17:37;1.27;;;0.60;;
65018;SDS011;66069;51.164;-114.452;2023-05-07T06:20:03;1.17;;;0.50;;
65018;SDS011;66069;51.164;-114.452;2023-05-07T06:22:29;0.98;;;0.55;;
65018;SDS011;66069;51.164;-114.452;2023-05-07T06:24:55;0.70;;;0.60;;
65018;SDS011;66069;51.164;-114.452;2023-05-07T06:27:21;1.02;;;0.65;;
65018;SDS011;66069;51.164;-114.452;2023-05-07T06:29:47;1.23;;;0.65;;
65018;SDS011;66069;51.164;-114.452;2023-05-07T06:32:14;1.60;;;0.60;;
65018;SDS011;66069;51.164;-114.452;2023-05-07T06:34:40;0.82;;;0.60;;
65018;SDS011;66069;51.164;-114.452;2023-05-07T06:37:06;0.77;;;0.60;;
65018;SDS011;66069;51.164;-114.452;2023-05-07T06:39:32;1.10;;;0.68;;
65018;SDS011;66069;51.164;-114.452;2023-05-07T06:41:59;0.98;;;0.65;;
65018;SDS011;66069;51.164;-114.452;2023-05-07T06:44:25;1.00;;;0.60;;
65018;SDS011;66069;51.164;-114.452;2023-05-07T06:46:51;0.73;;;0.57;;
65018;SDS011;66069;51.164;-114.452;2023-05-07T06:49:17;1.15;;;0.65;;
65018;SDS011;66069;51.164;-114.452;2023-05-07T06:51:43;0.95;;;0.60;;
65018;SDS011;66069;51.164;-114.452;2023-05-07T06:54:09;0.90;;;0.50;;
65018;SDS011;66069;51.164;-114.452;2023-05-07T06:56:35;0.52;;;0.50;;
65018;SDS011;66069;51.164;-114.452;2023-05-07T06:59:01;0.85;;;0.63;;
65018;SDS011;66069;51.164;-114.452;2023-05-07T07:01:27;0.77;;;0.70;;
65018;SDS011;66069;51.164;-114.452;2023-05-07T07:03:53;0.73;;;0.60;;
65018;SDS011;66069;51.164;-114.452;2023-05-07T07:06:19;0.77;;;0.50;;
65018;SDS011;66069;51.164;-114.452;2023-05-07T07:08:45;1.75;;;0.68;;
65018;SDS011;66069;51.164;-114.452;2023-05-07T07:11:11;0.55;;;0.50;;
65018;SDS011;66069;51.164;-114.452;2023-05-07T07:13:37;0.95;;;0.60;;
65018;SDS011;66069;51.164;-114.452;2023-05-07T07:16:03;1.00;;;0.60;;
65018;SDS011;66069;51.164;-114.452;2023-05-07T07:18:29;0.95;;;0.60;;
65018;SDS011;66069;51.164;-114.452;2023-05-07T07:20:55;0.60;;;0.50;;
65018;SDS011;66069;51.164;-114.452;2023-05-07T07:23:21;0.73;;;0.52;;
65018;SDS011;66069;51.164;-114.452;2023-05-07T07:25:47;0.95;;;0.50;;
65018;SDS011;66069;51.164;-114.452;2023-05-07T07:28:13;0.95;;;0.60;;
65018;SDS011;66069;51.164;-114.452;2023-05-07T07:30:39;0.90;;;0.55;;
65018;SDS011;66069;51.164;-114.452;2023-05-07T07:33:05;0.52;;;0.45;;
65018;SDS011;66069;51.164;-114.452;2023-05-07T07:35:34;1.00;;;0.50;;
65018;SDS011;66069;51.164;-114.452;2023-05-07T07:38:03;0.68;;;0.50;;
65018;SDS011;66069;51.164;-114.452;2023-05-07T07:40:29;0.88;;;0.50;;
65018;SDS011;66069;51.164;-114.452;2023-05-07T07:42:56;0.70;;;0.60;;
65018;SDS011;66069;51.164;-114.452;2023-05-07T07:45:22;1.00;;;0.60;;
65018;SDS011;66069;51.164;-114.452;2023-05-07T07:47:48;1.00;;;0.63;;
65018;SDS011;66069;51.164;-114.452;2023-05-07T07:50:14;1.15;;;0.60;;
65018;SDS011;66069;51.164;-114.452;2023-05-07T07:52:39;1.40;;;0.80;;
65018;SDS011;66069;51.164;-114.452;2023-05-07T07:55:06;0.60;;;0.50;;
65018;SDS011;66069;51.164;-114.452;2023-05-07T07:57:32;0.47;;;0.40;;
65018;SDS011;66069;51.164;-114.452;2023-05-07T07:59:58;0.80;;;0.50;;
65018;SDS011;66069;51.164;-114.452;2023-05-07T08:02:24;1.02;;;0.55;;
65018;SDS011;66069;51.164;-114.452;2023-05-07T08:04:53;0.60;;;0.50;;
65018;SDS011;66069;51.164;-114.452;2023-05-07T08:07:19;0.60;;;0.50;;
65018;SDS011;66069;51.164;-114.452;2023-05-07T08:09:47;0.95;;;0.45;;
65018;SDS011;66069;51.164;-114.452;2023-05-07T08:12:13;0.60;;;0.50;;
65018;SDS011;66069;51.164;-114.452;2023-05-07T08:14:39;0.63;;;0.45;;
65018;SDS011;66069;51.164;-114.452;2023-05-07T08:17:05;0.73;;;0.45;;
65018;SDS011;66069;51.164;-114.452;2023-05-07T08:19:31;0.68;;;0.57;;
65018;SDS011;66069;51.164;-114.452;2023-05-07T08:21:57;0.65;;;0.50;;
65018;SDS011;66069;51.164;-114.452;2023-05-07T08:24:23;0.65;;;0.50;;
65018;SDS011;66069;51.164;-114.452;2023-05-07T08:29:24;0.60;;;0.47;;
65018;SDS011;66069;51.164;-114.452;2023-05-07T08:31:50;0.93;;;0.60;;
65018;SDS011;66069;51.164;-114.452;2023-05-07T08:34:16;0.82;;;0.60;;
65018;SDS011;66069;51.164;-114.452;2023-05-07T08:36:42;0.75;;;0.52;;
65018;SDS011;66069;51.164;-114.452;2023-05-07T08:39:08;0.60;;;0.50;;
65018;SDS011;66069;51.164;-114.452;2023-05-07T08:41:34;0.55;;;0.50;;
65018;SDS011;66069;51.164;-114.452;2023-05-07T08:44:00;0.50;;;0.50;;
65018;SDS011;66069;51.164;-114.452;2023-05-07T08:46:29;1.30;;;0.50;;
65018;SDS011;66069;51.164;-114.452;2023-05-07T08:48:56;0.63;;;0.50;;
65018;SDS011;66069;51.164;-114.452;2023-05-07T08:51:22;0.43;;;0.40;;
65018;SDS011;66069;51.164;-114.452;2023-05-07T08:53:48;0.63;;;0.43;;
65018;SDS011;66069;51.164;-114.452;2023-05-07T08:56:15;0.75;;;0.68;;
65018;SDS011;66069;51.164;-114.452;2023-05-07T08:58:44;0.68;;;0.50;;
65018;SDS011;66069;51.164;-114.452;2023-05-07T09:01:12;0.80;;;0.57;;
65018;SDS011;66069;51.164;-114.452;2023-05-07T09:03:39;0.40;;;0.40;;
65018;SDS011;66069;51.164;-114.452;2023-05-07T09:06:05;0.57;;;0.57;;
65018;SDS011;66069;51.164;-114.452;2023-05-07T09:08:32;0.60;;;0.50;;
65018;SDS011;66069;51.164;-114.452;2023-05-07T09:10:58;0.90;;;0.50;;
65018;SDS011;66069;51.164;-114.452;2023-05-07T09:13:24;0.60;;;0.50;;
65018;SDS011;66069;51.164;-114.452;2023-05-07T09:15:50;1.23;;;0.50;;
65018;SDS011;66069;51.164;-114.452;2023-05-07T09:18:16;0.82;;;0.50;;
65018;SDS011;66069;51.164;-114.452;2023-05-07T09:20:42;0.70;;;0.50;;
65018;SDS011;66069;51.164;-114.452;2023-05-07T09:23:08;0.50;;;0.50;;
65018;SDS011;66069;51.164;-114.452;2023-05-07T09:25:34;0.45;;;0.43;;
65018;SDS011;66069;51.164;-114.452;2023-05-07T09:28:01;1.08;;;0.60;;
65018;SDS011;66069;51.164;-114.452;2023-05-07T09:30:27;0.30;;;0.30;;
65018;SDS011;66069;51.164;-114.452;2023-05-07T09:32:54;0.50;;;0.50;;
65018;SDS011;66069;51.164;-114.452;2023-05-07T09:35:20;0.55;;;0.45;;
65018;SDS011;66069;51.164;-114.452;2023-05-07T09:37:49;0.30;;;0.30;;
65018;SDS011;66069;51.164;-114.452;2023-05-07T09:42:48;1.08;;;0.60;;
65018;SDS011;66069;51.164;-114.452;2023-05-07T09:45:15;1.63;;;0.50;;
65018;SDS011;66069;51.164;-114.452;2023-05-07T09:47:42;0.77;;;0.40;;
65018;SDS011;66069;51.164;-114.452;2023-05-07T09:50:11;0.77;;;0.40;;
65018;SDS011;66069;51.164;-114.452;2023-05-07T09:52:38;0.77;;;0.50;;
65018;SDS011;66069;51.164;-114.452;2023-05-07T09:55:05;0.80;;;0.43;;
65018;SDS011;66069;51.164;-114.452;2023-05-07T09:57:31;0.32;;;0.30;;
65018;SDS011;66069;51.164;-114.452;2023-05-07T09:59:58;0.70;;;0.50;;
65018;SDS011;66069;51.164;-114.452;2023-05-07T10:02:25;0.50;;;0.40;;
65018;SDS011;66069;51.164;-114.452;2023-05-07T10:04:53;0.90;;;0.50;;
65018;SDS011;66069;51.164;-114.452;2023-05-07T10:07:20;0.50;;;0.40;;
65018;SDS011;66069;51.164;-114.452;2023-05-07T10:09:46;0.50;;;0.47;;
65018;SDS011;66069;51.164;-114.452;2023-05-07T10:12:12;0.68;;;0.50;;
65018;SDS011;66069;51.164;-114.452;2023-05-07T10:14:38;0.30;;;0.30;;
65018;SDS011;66069;51.164;-114.452;2023-05-07T10:17:04;0.47;;;0.40;;
65018;SDS011;66069;51.164;-114.452;2023-05-07T10:19:34;0.52;;;0.40;;
65018;SDS011;66069;51.164;-114.452;2023-05-07T10:22:03;0.82;;;0.50;;
65018;SDS011;66069;51.164;-114.452;2023-05-07T10:24:33;1.05;;;0.50;;
65018;SDS011;66069;51.164;-114.452;2023-05-07T10:27:04;0.85;;;0.60;;
65018;SDS011;66069;51.164;-114.452;2023-05-07T10:29:39;0.45;;;0.40;;
65018;SDS011;66069;51.164;-114.452;2023-05-07T10:34:47;0.57;;;0.40;;
65018;SDS011;66069;51.164;-114.452;2023-05-07T10:37:14;0.65;;;0.60;;
65018;SDS011;66069;51.164;-114.452;2023-05-07T10:39:40;0.60;;;0.40;;
65018;SDS011;66069;51.164;-114.452;2023-05-07T10:42:10;0.32;;;0.32;;
65018;SDS011;66069;51.164;-114.452;2023-05-07T10:44:36;0.50;;;0.40;;
65018;SDS011;66069;51.164;-114.452;2023-05-07T10:47:12;0.70;;;0.43;;
65018;SDS011;66069;51.164;-114.452;2023-05-07T10:52:17;0.45;;;0.40;;
65018;SDS011;66069;51.164;-114.452;2023-05-07T10:54:44;1.02;;;0.50;;
65018;SDS011;66069;51.164;-114.452;2023-05-07T10:59:54;0.82;;;0.40;;
65018;SDS011;66069;51.164;-114.452;2023-05-07T11:02:20;1.13;;;0.50;;
65018;SDS011;66069;51.164;-114.452;2023-05-07T11:04:46;0.30;;;0.30;;
65018;SDS011;66069;51.164;-114.452;2023-05-07T11:07:31;0.75;;;0.47;;
65018;SDS011;66069;51.164;-114.452;2023-05-07T11:09:58;0.70;;;0.47;;
65018;SDS011;66069;51.164;-114.452;2023-05-07T11:15:05;0.55;;;0.40;;
65018;SDS011;66069;51.164;-114.452;2023-05-07T11:17:31;0.33;;;0.30;;
65018;SDS011;66069;51.164;-114.452;2023-05-07T11:20:00;0.98;;;0.43;;
65018;SDS011;66069;51.164;-114.452;2023-05-07T11:25:02;0.43;;;0.40;;
65018;SDS011;66069;51.164;-114.452;2023-05-07T11:27:28;0.40;;;0.37;;
65018;SDS011;66069;51.164;-114.452;2023-05-07T11:29:54;0.50;;;0.38;;
65018;SDS011;66069;51.164;-114.452;2023-05-07T11:32:30;0.55;;;0.40;;
65018;SDS011;66069;51.164;-114.452;2023-05-07T11:34:59;0.40;;;0.38;;
65018;SDS011;66069;51.164;-114.452;2023-05-07T11:37:26;0.20;;;0.20;;
65018;SDS011;66069;51.164;-114.452;2023-05-07T11:40:08;0.65;;;0.40;;
65018;SDS011;66069;51.164;-114.452;2023-05-07T11:42:37;0.65;;;0.40;;
65018;SDS011;66069;51.164;-114.452;2023-05-07T11:45:03;0.85;;;0.47;;
65018;SDS011;66069;51.164;-114.452;2023-05-07T11:47:31;0.40;;;0.30;;
65018;SDS011;66069;51.164;-114.452;2023-05-07T11:49:57;0.47;;;0.30;;
65018;SDS011;66069;51.164;-114.452;2023-05-07T11:52:27;0.50;;;0.40;;
65018;SDS011;66069;51.164;-114.452;2023-05-07T11:54:54;0.40;;;0.32;;
65018;SDS011;66069;51.164;-114.452;2023-05-07T11:57:20;0.73;;;0.47;;
65018;SDS011;66069;51.164;-114.452;2023-05-07T11:59:46;0.30;;;0.30;;
65018;SDS011;66069;51.164;-114.452;2023-05-07T12:02:15;0.75;;;0.47;;
65018;SDS011;66069;51.164;-114.452;2023-05-07T12:04:41;0.63;;;0.50;;
65018;SDS011;66069;51.164;-114.452;2023-05-07T12:07:16;0.47;;;0.43;;
65018;SDS011;66069;51.164;-114.452;2023-05-07T12:09:46;0.52;;;0.40;;
65018;SDS011;66069;51.164;-114.452;2023-05-07T12:12:13;0.73;;;0.50;;
65018;SDS011;66069;51.164;-114.452;2023-05-07T12:14:41;0.68;;;0.52;;
65018;SDS011;66069;51.164;-114.452;2023-05-07T12:17:07;0.50;;;0.40;;
65018;SDS011;66069;51.164;-114.452;2023-05-07T12:19:36;0.43;;;0.32;;
65018;SDS011;66069;51.164;-114.452;2023-05-07T12:22:03;0.77;;;0.50;;
65018;SDS011;66069;51.164;-114.452;2023-05-07T12:24:30;0.30;;;0.30;;
65018;SDS011;66069;51.164;-114.452;2023-05-07T12:27:07;0.60;;;0.40;;
65018;SDS011;66069;51.164;-114.452;2023-05-07T12:29:32;0.85;;;0.40;;
65018;SDS011;66069;51.164;-114.452;2023-05-07T12:31:58;0.40;;;0.40;;
65018;SDS011;66069;51.164;-114.452;2023-05-07T12:34:24;0.50;;;0.40;;
65018;SDS011;66069;51.164;-114.452;2023-05-07T12:36:50;0.57;;;0.40;;
65018;SDS011;66069;51.164;-114.452;2023-05-07T12:39:16;0.40;;;0.40;;
65018;SDS011;66069;51.164;-114.452;2023-05-07T12:41:55;0.68;;;0.50;;
65018;SDS011;66069;51.164;-114.452;2023-05-07T12:44:25;0.52;;;0.30;;
65018;SDS011;66069;51.164;-114.452;2023-05-07T12:46:51;0.30;;;0.30;;
65018;SDS011;66069;51.164;-114.452;2023-05-07T12:49:17;0.57;;;0.47;;
65018;SDS011;66069;51.164;-114.452;2023-05-07T12:51:43;0.55;;;0.40;;
65018;SDS011;66069;51.164;-114.452;2023-05-07T12:54:09;0.52;;;0.40;;
65018;SDS011;66069;51.164;-114.452;2023-05-07T12:56:35;0.60;;;0.40;;
65018;SDS011;66069;51.164;-114.452;2023-05-07T12:59:02;0.45;;;0.40;;
65018;SDS011;66069;51.164;-114.452;2023-05-07T13:01:29;1.17;;;0.43;;
65018;SDS011;66069;51.164;-114.452;2023-05-07T13:03:57;0.50;;;0.40;;
65018;SDS011;66069;51.164;-114.452;2023-05-07T13:06:26;0.73;;;0.40;;
65018;SDS011;66069;51.164;-114.452;2023-05-07T13:08:52;0.40;;;0.30;;
65018;SDS011;66069;51.164;-114.452;2023-05-07T13:11:17;1.40;;;0.47;;
65018;SDS011;66069;51.164;-114.452;2023-05-07T13:13:43;0.65;;;0.40;;
65018;SDS011;66069;51.164;-114.452;2023-05-07T13:16:10;0.82;;;0.47;;
65018;SDS011;66069;51.164;-114.452;2023-05-07T13:18:37;0.45;;;0.30;;
65018;SDS011;66069;51.164;-114.452;2023-05-07T13:21:03;0.40;;;0.30;;
65018;SDS011;66069;51.164;-114.452;2023-05-07T13:23:29;0.52;;;0.40;;
65018;SDS011;66069;51.164;-114.452;2023-05-07T13:25:56;0.68;;;0.45;;
65018;SDS011;66069;51.164;-114.452;2023-05-07T13:28:22;0.30;;;0.30;;
65018;SDS011;66069;51.164;-114.452;2023-05-07T13:30:48;0.40;;;0.38;;
65018;SDS011;66069;51.164;-114.452;2023-05-07T13:33:14;0.40;;;0.40;;
65018;SDS011;66069;51.164;-114.452;2023-05-07T13:35:43;1.10;;;0.40;;
65018;SDS011;66069;51.164;-114.452;2023-05-07T13:38:09;0.60;;;0.30;;
65018;SDS011;66069;51.164;-114.452;2023-05-07T13:40:35;0.40;;;0.40;;
65018;SDS011;66069;51.164;-114.452;2023-05-07T13:43:01;0.90;;;0.50;;
65018;SDS011;66069;51.164;-114.452;2023-05-07T13:45:30;0.65;;;0.40;;
65018;SDS011;66069;51.164;-114.452;2023-05-07T13:47:56;0.65;;;0.40;;
65018;SDS011;66069;51.164;-114.452;2023-05-07T13:50:22;0.40;;;0.40;;
65018;SDS011;66069;51.164;-114.452;2023-05-07T13:52:48;0.52;;;0.40;;
65018;SDS011;66069;51.164;-114.452;2023-05-07T13:55:17;0.57;;;0.40;;
65018;SDS011;66069;51.164;-114.452;2023-05-07T13:57:43;0.30;;;0.30;;
65018;SDS011;66069;51.164;-114.452;2023-05-07T14:00:09;0.95;;;0.40;;
65018;SDS011;66069;51.164;-114.452;2023-05-07T14:02:35;0.70;;;0.40;;
65018;SDS011;66069;51.164;-114.452;2023-05-07T14:05:01;0.60;;;0.40;;
65018;SDS011;66069;51.164;-114.452;2023-05-07T14:07:27;0.40;;;0.30;;
65018;SDS011;66069;51.164;-114.452;2023-05-07T14:09:54;0.47;;;0.40;;
65018;SDS011;66069;51.164;-114.452;2023-05-07T14:12:19;0.60;;;0.38;;
65018;SDS011;66069;51.164;-114.452;2023-05-07T14:14:45;0.40;;;0.40;;
65018;SDS011;66069;51.164;-114.452;2023-05-07T14:17:12;0.75;;;0.45;;
65018;SDS011;66069;51.164;-114.452;2023-05-07T14:19:38;0.45;;;0.30;;
65018;SDS011;66069;51.164;-114.452;2023-05-07T14:22:04;0.82;;;0.40;;
65018;SDS011;66069;51.164;-114.452;2023-05-07T14:24:30;0.63;;;0.50;;
65018;SDS011;66069;51.164;-114.452;2023-05-07T14:26:56;0.57;;;0.40;;